Vigo

Airport
ICAO code: 
LEVX
Summary
ICAO Region: 
EUR
Territory: 
Location: 
Vigo, Spain,
Coordinates: 
Aerial View: 
42° 13' 54.48" N, 8° 37' 36.372" W
Metar
Observation
LEVX 261200Z 21005KT 140V240 CAVOK 11/04 Q1028 NOSIG
Station
Vigo / Peinador
Date/Time
2022-01-26 12:00:00
Wind direction
210°
Wind speed
05 kts
Lowest cloud amount
clouds and visibility OK
Temperature
11°C
Dew point
4°C
Humidity
62%
QNH
1028 hPa
Weather condition
n/a

Description

International airport serving Asturias, northwest Spain.

Climatology

Temperate Marine climate/Oceanic climate (Köppen climate classification Cfb). Moderately cool summer and comparatively warm winter with a temperature range of only 14°C. Prevailing south-westerly winds from the Atlantic Ocean.

Runways

Designator Length Width Surface Rops
2/20 2400 45 ASP Yes/Yes
Airport map: 
Aerial View: 

Accidents and Serious Incidents at or in the vicinity of LEVX

SKYbrary Partners:

Safety knowledge contributed by: